Time;durP1;ratioP1;P1;durP2;ratioP2;P2;SDS_P1;SDS_P2;PMS_P1;PMS_P2;Temp;Humidity;BMP_temperature;BMP_pressure;BME280_temperature;BME280_humidity;BME280_pressure;Samples;Min_cycle;Max_cycle;Signal;HPM_P1;HPM_P2
2023/08/15 00:02:23;;;;;;;;;;;;;;;25.88;100.00;99903.38;5030908;28;20320;-78
2023/08/15 00:04:49;;;;;;;;;;;;;;;25.72;100.00;99904.06;5031229;28;19921;-78
2023/08/15 00:07:14;;;;;;;;;;;;;;;25.43;100.00;99911.13;5025958;28;19928;-78
2023/08/15 00:09:39;;;;;;;;;;;;;;;25.33;100.00;99910.88;5031464;28;19921;-78
2023/08/15 00:12:05;;;;;;;;;;;;;;;25.20;100.00;99914.59;5030448;28;19932;-78
2023/08/15 00:14:30;;;;;;;;;;;;;;;25.06;100.00;99916.63;5031540;28;19948;-78
2023/08/15 00:16:56;;;;;;;;;;;;;;;25.01;100.00;99912.97;5031008;28;20380;-77
2023/08/15 00:19:21;;;;;;;;;;;;;;;25.03;100.00;99916.28;5030630;28;19936;-78
2023/08/15 00:21:46;;;;;;;;;;;;;;;25.08;100.00;99913.72;5031508;28;19921;-78
2023/08/15 00:24:12;;;;;;;;;;;;;;;25.01;100.00;99910.25;5055697;28;19928;-78
2023/08/15 00:26:37;;;;;;;;;;;;;;;24.85;100.00;99914.38;5031192;28;19921;-77
2023/08/15 00:29:03;;;;;;;;;;;;;;;24.69;100.00;99920.38;5029758;28;20304;-78
2023/08/15 00:31:30;;;;;;;;;;;;;;;24.60;100.00;99914.47;5029149;28;19927;-78
2023/08/15 00:33:55;;;;;;;;;;;;;;;24.52;100.00;99914.75;5030432;28;20269;-76
2023/08/15 00:36:21;;;;;;;;;;;;;;;24.44;100.00;99917.78;5030833;28;19978;-77
2023/08/15 00:38:46;;;;;;;;;;;;;;;24.33;100.00;99916.63;5029890;28;19921;-78
2023/08/15 00:41:11;;;;;;;;;;;;;;;24.39;100.00;99923.81;5029721;28;20293;-78
2023/08/15 00:43:37;;;;;;;;;;;;;;;24.42;100.00;99917.16;5030740;28;20007;-78
2023/08/15 00:46:05;;;;;;;;;;;;;;;24.43;100.00;99921.50;5066490;28;20408;-78
2023/08/15 00:48:32;;;;;;;;;;;;;;;24.50;100.00;99916.88;5029827;28;19972;-78
2023/08/15 00:50:58;;;;;;;;;;;;;;;24.59;100.00;99926.31;5029568;28;19921;-76
2023/08/15 00:53:24;;;;;;;;;;;;;;;24.52;100.00;99922.84;5030272;28;19929;-77
2023/08/15 00:55:52;;;;;;;;;;;;;;;24.46;100.00;99916.47;5031012;28;19944;-78
2023/08/15 00:58:18;;;;;;;;;;;;;;;24.48;100.00;99925.19;5028050;28;19925;-78
2023/08/15 01:00:43;;;;;;;;;;;;;;;24.44;100.00;99918.59;5058750;28;19925;-77
2023/08/15 01:03:09;;;;;;;;;;;;;;;24.48;100.00;99925.19;5027367;28;19925;-77
2023/08/15 01:05:35;;;;;;;;;;;;;;;24.61;100.00;99924.22;5029250;28;20110;-77
2023/08/15 01:08:00;;;;;;;;;;;;;;;24.62;100.00;99928.56;5029441;28;20020;-77
2023/08/15 01:10:26;;;;;;;;;;;;;;;24.66;100.00;99929.75;5030880;28;20531;-77
2023/08/15 01:12:57;;;;;;;;;;;;;;;24.74;100.00;99926.75;5030543;28;19928;-77
2023/08/15 01:15:26;;;;;;;;;;;;;;;24.77;100.00;99920.91;5030704;28;20381;-78
2023/08/15 01:17:54;;;;;;;;;;;;;;;24.78;100.00;99914.47;5029336;28;20055;-78
2023/08/15 01:20:22;;;;;;;;;;;;;;;24.73;100.00;99921.59;5028559;28;20378;-78
2023/08/15 01:22:51;;;;;;;;;;;;;;;24.76;100.00;99919.25;5028813;28;19922;-78
2023/08/15 01:25:17;;;;;;;;;;;;;;;24.70;100.00;99917.47;5029358;28;19972;-78
2023/08/15 01:27:43;;;;;;;;;;;;;;;24.75;100.00;99914.91;5029071;28;19940;-78
2023/08/15 01:30:08;;;;;;;;;;;;;;;24.80;100.00;99920.44;5029339;28;19921;-78
2023/08/15 01:32:42;;;;;;;;;;;;;;;24.81;100.00;99916.69;5030914;28;19929;-79
2023/08/15 01:35:16;;;;;;;;;;;;;;;24.76;100.00;99919.25;5029450;28;19921;-79
2023/08/15 01:37:47;;;;;;;;;;;;;;;24.81;100.00;99911.31;5029765;28;19927;-78
2023/08/15 01:40:15;;;;;;;;;;;;;;;24.82;100.00;99907.56;5028410;28;19921;-77
2023/08/15 01:42:41;;;;;;;;;;;;;;;24.86;100.00;99916.00;5030517;28;19921;-78
2023/08/15 01:45:07;;;;;;;;;;;;;;;24.87;100.00;99910.41;5030323;28;19928;-78
2023/08/15 01:47:33;;;;;;;;;;;;;;;24.88;100.00;99903.97;5030401;28;20336;-78
2023/08/15 01:49:58;;;;;;;;;;;;;;;24.79;100.00;99905.31;5029398;28;19921;-77
2023/08/15 01:52:23;;;;;;;;;;;;;;;24.66;100.00;99905.47;5029812;28;20005;-77
2023/08/15 01:54:49;;;;;;;;;;;;;;;24.60;100.00;99905.56;5028564;28;20005;-77
2023/08/15 01:57:14;;;;;;;;;;;;;;;24.56;100.00;99902.50;5029799;28;19968;-77
2023/08/15 01:59:39;;;;;;;;;;;;;;;24.60;100.00;99900.97;5029010;28;19937;-77
2023/08/15 02:02:06;;;;;;;;;;;;;;;24.63;100.00;99895.13;5028571;28;19925;-76
2023/08/15 02:04:32;;;;;;;;;;;;;;;24.67;100.00;99885.53;5028412;28;20028;-78
2023/08/15 02:06:57;;;;;;;;;;;;;;;24.68;100.00;99897.97;5029773;28;19921;-77
2023/08/15 02:09:24;;;;;;;;;;;;;;;24.65;100.00;99893.03;5055937;28;20404;-76
2023/08/15 02:11:49;;;;;;;;;;;;;;;24.65;100.00;99895.72;5029906;28;19965;-77
2023/08/15 02:14:14;;;;;;;;;;;;;;;24.63;100.00;99889.72;5028297;28;19925;-77
2023/08/15 02:16:40;;;;;;;;;;;;;;;24.72;100.00;99885.69;5030058;28;20015;-77
2023/08/15 02:19:05;;;;;;;;;;;;;;;24.76;100.00;99888.75;5031532;28;19925;-77
2023/08/15 02:21:30;;;;;;;;;;;;;;;24.74;100.00;99880.06;5031338;28;19979;-77
2023/08/15 02:23:56;;;;;;;;;;;;;;;24.72;100.00;99883.00;5032718;28;20385;-76
2023/08/15 02:26:22;;;;;;;;;;;;;;;24.67;100.00;99885.53;5031768;28;19921;-77
2023/08/15 02:28:48;;;;;;;;;;;;;;;24.64;100.00;99877.06;5031892;28;19944;-77
2023/08/15 02:31:13;;;;;;;;;;;;;;;24.65;100.00;99876.84;5033298;28;20016;-76
2023/08/15 02:33:38;;;;;;;;;;;;;;;24.68;100.00;99870.19;5033365;28;19932;-75
2023/08/15 02:36:07;;;;;;;;;;;;;;;24.65;100.00;99876.84;5032669;28;19921;-77
2023/08/15 02:38:33;;;;;;;;;;;;;;;24.62;100.00;99877.31;5060458;28;20596;-77
2023/08/15 02:40:59;;;;;;;;;;;;;;;24.63;100.00;99873.53;5033001;28;19948;-77
2023/08/15 02:43:24;;;;;;;;;;;;;;;24.51;100.00;99869.13;5031460;28;20736;-77
2023/08/15 02:45:49;;;;;;;;;;;;;;;24.53;100.00;99875.13;5031762;28;19953;-77
2023/08/15 02:48:15;;;;;;;;;;;;;;;24.37;100.00;99866.59;5032803;28;19963;-77
2023/08/15 02:50:41;;;;;;;;;;;;;;;24.29;100.00;99871.44;5032696;28;19928;-77
2023/08/15 02:53:06;;;;;;;;;;;;;;;24.23;100.00;99866.94;5031853;28;20020;-77
2023/08/15 02:55:32;;;;;;;;;;;;;;;24.27;100.00;99878.97;5032195;28;19983;-77
2023/08/15 02:57:57;;;;;;;;;;;;;;;24.33;100.00;99867.25;5060234;28;19928;-77
2023/08/15 03:00:23;;;;;;;;;;;;;;;24.39;100.00;99867.16;5032555;28;19925;-77
2023/08/15 03:02:48;;;;;;;;;;;;;;;24.31;100.00;99872.88;5032865;28;19961;-77
2023/08/15 03:05:14;;;;;;;;;;;;;;;24.21;100.00;99871.75;5032390;28;19921;-78
2023/08/15 03:07:39;;;;;;;;;;;;;;;24.08;100.00;99862.72;5032331;28;19929;-77
2023/08/15 03:10:05;;;;;;;;;;;;;;;24.06;100.00;99866.69;5030517;28;19925;-78
2023/08/15 03:12:30;;;;;;;;;;;;;;;24.17;100.00;99857.84;5032413;28;19925;-78
2023/08/15 03:14:57;;;;;;;;;;;;;;;24.25;100.00;99854.06;5030893;28;20378;-77
2023/08/15 03:17:23;;;;;;;;;;;;;;;24.02;100.00;99860.91;5030873;28;20059;-78
2023/08/15 03:19:48;;;;;;;;;;;;;;;24.02;100.00;99860.91;5030730;28;20016;-77
2023/08/15 03:22:14;;;;;;;;;;;;;;;24.15;100.00;99853.75;5030739;28;19921;-77
2023/08/15 03:24:39;;;;;;;;;;;;;;;24.18;100.00;99855.97;5031539;28;19929;-77
2023/08/15 03:27:05;;;;;;;;;;;;;;;24.15;100.00;99859.13;5030271;28;19928;-78
2023/08/15 03:29:30;;;;;;;;;;;;;;;24.21;100.00;99863.66;5030676;28;19928;-77
2023/08/15 03:31:57;;;;;;;;;;;;;;;24.18;100.00;99862.22;5043010;28;20270;-77
2023/08/15 03:34:27;;;;;;;;;;;;;;;24.23;100.00;99856.16;5028088;28;20024;-76
2023/08/15 03:36:52;;;;;;;;;;;;;;;24.26;100.00;99859.25;5030698;28;19957;-77
2023/08/15 03:39:17;;;;;;;;;;;;;;;24.30;100.00;99865.84;5029850;28;19975;-78
2023/08/15 03:41:43;;;;;;;;;;;;;;;24.10;100.00;99867.88;5030388;28;19921;-76
2023/08/15 03:44:08;;;;;;;;;;;;;;;23.97;100.00;99866.16;5013589;28;19928;-77
2023/08/15 03:46:33;;;;;;;;;;;;;;;23.96;100.00;99871.75;5031648;28;20392;-77
2023/08/15 03:48:59;;;;;;;;;;;;;;;23.72;100.00;99870.72;5031553;28;19925;-76
2023/08/15 03:51:24;;;;;;;;;;;;;;;23.69;100.00;99876.53;5030191;28;19948;-77
2023/08/15 03:53:52;;;;;;;;;;;;;;;23.53;100.00;99882.47;5031643;28;19921;-76
2023/08/15 03:56:18;;;;;;;;;;;;;;;23.42;100.00;99885.84;5029460;28;19917;-76
2023/08/15 03:58:44;;;;;;;;;;;;;;;23.35;100.00;99890.44;5031574;28;19921;-76
2023/08/15 04:01:09;;;;;;;;;;;;;;;23.26;100.00;99882.66;5031300;28;19929;-76
2023/08/15 04:03:35;;;;;;;;;;;;;;;23.20;100.00;99886.19;5030175;28;20119;-76
2023/08/15 04:06:00;;;;;;;;;;;;;;;23.27;100.00;99881.56;5029898;28;19929;-76
2023/08/15 04:08:26;;;;;;;;;;;;;;;23.34;100.00;99891.47;5031059;28;20427;-76
2023/08/15 04:10:54;;;;;;;;;;;;;;;23.24;100.00;99884.72;5055105;28;19928;-76
2023/08/15 04:13:19;;;;;;;;;;;;;;;23.24;100.00;99891.97;5055011;28;20076;-76
2023/08/15 04:15:45;;;;;;;;;;;;;;;23.21;100.00;99892.38;5030081;28;19996;-77
2023/08/15 04:18:11;;;;;;;;;;;;;;;23.26;100.00;99888.03;5029664;28;20847;-76
2023/08/15 04:20:39;;;;;;;;;;;;;;;23.28;100.00;99890.47;5031412;28;19939;-76
2023/08/15 04:23:06;;;;;;;;;;;;;;;23.37;100.00;99888.38;5029787;28;19932;-77
2023/08/15 04:25:35;;;;;;;;;;;;;;;23.46;100.00;99892.44;5031174;28;20002;-76
2023/08/15 04:28:01;;;;;;;;;;;;;;;23.56;100.00;99898.22;5028960;28;20296;-77
2023/08/15 04:30:26;;;;;;;;;;;;;;;23.63;100.00;99894.41;5030984;28;19921;-77
2023/08/15 04:32:52;;;;;;;;;;;;;;;23.66;100.00;99898.56;5031204;28;20013;-77
2023/08/15 04:35:17;;;;;;;;;;;;;;;23.65;100.00;99907.66;5029304;28;20300;-77
2023/08/15 04:37:43;;;;;;;;;;;;;;;23.64;100.00;99906.00;5029888;28;19947;-77
2023/08/15 04:40:15;;;;;;;;;;;;;;;23.62;100.00;99905.44;5028584;28;19917;-77
2023/08/15 04:42:40;;;;;;;;;;;;;;;23.50;100.00;99904.47;5028467;28;19936;-77
2023/08/15 04:45:06;;;;;;;;;;;;;;;23.28;100.00;99918.25;5030133;28;20336;-76
2023/08/15 04:47:32;;;;;;;;;;;;;;;23.32;100.00;99913.25;5030872;28;19964;-77
2023/08/15 04:49:57;;;;;;;;;;;;;;;23.25;100.00;99918.69;5029103;28;20309;-77
2023/08/15 04:52:23;;;;;;;;;;;;;;;23.14;100.00;99911.28;5029168;28;19993;-77
2023/08/15 04:54:48;;;;;;;;;;;;;;;23.22;100.00;99913.72;5030750;28;19928;-78
2023/08/15 04:57:13;;;;;;;;;;;;;;;23.25;100.00;99912.47;5028783;28;19925;-76
2023/08/15 04:59:39;;;;;;;;;;;;;;;23.24;100.00;99917.03;5044775;23;19925;-74
2023/08/15 05:02:04;;;;;;;;;;;;;;;23.28;100.00;99915.53;5028074;28;19995;-74
2023/08/15 05:04:29;;;;;;;;;;;;;;;23.38;100.00;99922.34;5030459;28;20033;-74
2023/08/15 05:06:55;;;;;;;;;;;;;;;23.41;100.00;99911.13;5029139;28;19960;-75
2023/08/15 05:09:20;;;;;;;;;;;;;;;23.51;100.00;99915.00;5028798;28;19921;-74
2023/08/15 05:11:46;;;;;;;;;;;;;;;23.54;100.00;99921.84;5029141;28;19928;-74
2023/08/15 05:14:11;;;;;;;;;;;;;;;23.60;100.00;99920.97;5028031;28;19921;-74
2023/08/15 05:16:37;;;;;;;;;;;;;;;23.64;100.00;99928.41;5028883;28;19925;-74
2023/08/15 05:19:03;;;;;;;;;;;;;;;23.70;100.00;99918.59;5028617;28;19944;-73
2023/08/15 05:21:28;;;;;;;;;;;;;;;23.74;100.00;99917.13;5028910;28;20399;-74
2023/08/15 05:23:54;;;;;;;;;;;;;;;23.76;100.00;99915.03;5029978;28;20044;-74
2023/08/15 05:26:20;;;;;;;;;;;;;;;23.79;100.00;99913.78;5031836;28;20381;-73
2023/08/15 05:28:45;;;;;;;;;;;;;;;23.76;100.00;99904.25;5012272;28;20012;-74
2023/08/15 05:31:11;;;;;;;;;;;;;;;23.71;100.00;99912.19;5029543;28;20036;-74
2023/08/15 05:33:36;;;;;;;;;;;;;;;23.68;100.00;99913.44;5028815;28;19929;-73
2023/08/15 05:36:01;;;;;;;;;;;;;;;23.69;100.00;99911.56;5029703;28;19921;-74
2023/08/15 05:38:28;;;;;;;;;;;;;;;23.64;100.00;99919.47;5028780;28;19925;-74
2023/08/15 05:40:53;;;;;;;;;;;;;;;23.69;100.00;99914.25;5029844;28;19921;-74
2023/08/15 05:43:19;;;;;;;;;;;;;;;23.68;100.00;99912.59;5029811;28;20393;-74
2023/08/15 05:45:45;;;;;;;;;;;;;;;23.68;100.00;99918.00;5029704;28;19921;-74
2023/08/15 05:48:11;;;;;;;;;;;;;;;23.74;100.00;99927.09;5029459;28;19925;-73
2023/08/15 05:50:37;;;;;;;;;;;;;;;23.76;100.00;99925.81;5029870;28;19971;-74
2023/08/15 05:53:02;;;;;;;;;;;;;;;23.81;100.00;99927.84;5033957;28;19921;-73
2023/08/15 05:55:27;;;;;;;;;;;;;;;23.77;100.00;99932.03;5034836;28;20000;-75
2023/08/15 05:57:53;;;;;;;;;;;;;;;23.78;100.00;99931.81;5034142;28;19928;-77
2023/08/15 06:00:18;;;;;;;;;;;;;;;23.70;100.00;99933.94;5033075;28;19928;-77
2023/08/15 06:02:45;;;;;;;;;;;;;;;23.74;100.00;99933.28;4335359;28;9999934;-76
2023/08/15 06:05:10;;;;;;;;;;;;;;;23.77;100.00;99932.88;5031023;28;20274;-77
2023/08/15 06:07:35;;;;;;;;;;;;;;;23.82;100.00;99942.97;5031458;28;19925;-77
2023/08/15 06:10:01;;;;;;;;;;;;;;;23.81;100.00;99944.84;5054932;28;20006;-77
2023/08/15 06:12:26;;;;;;;;;;;;;;;23.82;100.00;99945.69;5031204;28;19925;-77
2023/08/15 06:14:52;;;;;;;;;;;;;;;23.84;100.00;99944.44;5030971;28;19975;-76
2023/08/15 06:17:18;;;;;;;;;;;;;;;23.93;100.00;99935.00;5030774;28;19925;-76
2023/08/15 06:19:43;;;;;;;;;;;;;;;24.01;100.00;99932.03;5031005;28;19929;-75
2023/08/15 06:22:09;;;;;;;;;;;;;;;24.13;100.00;99931.31;5030715;28;19928;-77
2023/08/15 06:24:34;;;;;;;;;;;;;;;24.21;100.00;99941.88;5030776;28;19925;-76
2023/08/15 06:26:59;;;;;;;;;;;;;;;24.27;100.00;99943.69;5031041;28;19921;-76
2023/08/15 06:29:25;;;;;;;;;;;;;;;24.27;100.00;99943.69;5027229;28;20491;-78
2023/08/15 06:31:52;;;;;;;;;;;;;;;24.29;100.00;99936.16;5030866;28;19982;-78
2023/08/15 06:34:17;;;;;;;;;;;;;;;24.41;100.00;99934.38;5029480;28;20000;-78
2023/08/15 06:36:43;;;;;;;;;;;;;;;24.43;100.00;99932.31;5030611;28;19956;-78
2023/08/15 06:39:08;;;;;;;;;;;;;;;24.51;100.00;99926.59;5030303;28;19931;-78
2023/08/15 06:41:33;;;;;;;;;;;;;;;24.56;100.00;99932.16;5029705;28;19983;-77
2023/08/15 06:43:59;;;;;;;;;;;;;;;24.64;100.00;99928.31;5030608;28;19924;-76
2023/08/15 06:46:24;;;;;;;;;;;;;;;24.72;100.00;99926.16;5028819;28;19925;-76
2023/08/15 06:48:50;;;;;;;;;;;;;;;24.77;100.00;99918.22;5027874;28;19925;-74
2023/08/15 06:51:15;;;;;;;;;;;;;;;24.84;100.00;99916.25;5028130;28;19932;-75
2023/08/15 06:53:46;;;;;;;;;;;;;;;24.95;100.00;99919.28;5028445;28;20436;-76
2023/08/15 06:56:12;;;;;;;;;;;;;;;24.94;100.00;99914.91;5030642;28;20020;-76
2023/08/15 06:58:38;;;;;;;;;;;;;;;24.92;100.00;99914.34;4681019;28;9999916;-75
2023/08/15 07:01:05;;;;;;;;;;;;;;;24.90;100.00;99921.84;5030881;28;19921;-76
2023/08/15 07:03:33;;;;;;;;;;;;;;;24.87;100.00;99913.09;5032044;28;19956;-76
2023/08/15 07:05:58;;;;;;;;;;;;;;;24.92;100.00;99908.94;5031745;28;19928;-76
2023/08/15 07:08:24;;;;;;;;;;;;;;;24.99;100.00;99915.06;5031344;28;19920;-76
2023/08/15 07:10:53;;;;;;;;;;;;;;;25.04;100.00;99917.91;5032711;28;20396;-76
2023/08/15 07:13:19;;;;;;;;;;;;;;;25.13;100.00;99914.66;5031804;28;20293;-74
2023/08/15 07:15:44;;;;;;;;;;;;;;;25.25;100.00;99906.63;5033093;28;19917;-74
2023/08/15 07:18:09;;;;;;;;;;;;;;;25.33;100.00;99905.47;5030873;28;19928;-75
2023/08/15 07:20:35;;;;;;;;;;;;;;;25.40;100.00;99904.28;5032646;28;19917;-76
2023/08/15 07:23:00;;;;;;;;;;;;;;;25.44;100.00;99905.50;5031812;28;19925;-74
2023/08/15 07:25:26;;;;;;;;;;;;;;;25.49;100.00;99904.81;5031651;28;20381;-75
2023/08/15 07:27:51;;;;;;;;;;;;;;;25.57;100.00;99907.19;5031277;28;19917;-76
2023/08/15 07:30:16;;;;;;;;;;;;;;;25.60;100.00;99912.97;5029973;28;19948;-75
2023/08/15 07:32:42;;;;;;;;;;;;;;;25.63;100.00;99915.19;5031985;28;19925;-75
2023/08/15 07:35:07;;;;;;;;;;;;;;;25.71;100.00;99913.22;5031318;28;20368;-76
2023/08/15 07:37:33;;;;;;;;;;;;;;;25.80;100.00;99906.44;5032426;28;19925;-76
2023/08/15 07:40:05;;;;;;;;;;;;;;;25.89;100.00;99907.72;5030966;28;19917;-74
2023/08/15 07:42:31;;;;;;;;;;;;;;;25.92;100.00;99905.38;5031229;28;19921;-73
2023/08/15 07:44:56;;;;;;;;;;;;;;;25.98;100.00;99903.59;5032307;28;20334;-73
2023/08/15 07:47:22;;;;;;;;;;;;;;;26.02;100.00;99908.34;5031214;28;20278;-74
2023/08/15 07:49:47;;;;;;;;;;;;;;;26.08;100.00;99895.75;5032253;28;19928;-74
2023/08/15 07:52:12;;;;;;;;;;;;;;;26.16;100.00;99895.38;5031370;28;19952;-73
2023/08/15 07:54:38;;;;;;;;;;;;;;;26.24;100.00;99892.34;5031798;28;19975;-76
2023/08/15 07:57:03;;;;;;;;;;;;;;;26.32;100.00;99897.41;5032174;28;19925;-77
2023/08/15 07:59:29;;;;;;;;;;;;;;;26.42;100.00;99894.94;5030625;28;19999;-75
2023/08/15 08:01:54;;;;;;;;;;;;;;;26.49;100.00;99895.63;5032252;28;19921;-77
2023/08/15 08:04:19;;;;;;;;;;;;;;;26.52;100.00;99893.47;5031194;28;19921;-74
2023/08/15 08:06:45;;;;;;;;;;;;;;;26.55;100.00;99899.25;5030513;28;19984;-74
2023/08/15 08:09:10;;;;;;;;;;;;;;;26.63;100.00;99898.06;5029108;28;19935;-74
2023/08/15 08:11:36;;;;;;;;;;;;;;;26.71;100.00;99897.69;5027487;28;19980;-74
2023/08/15 08:14:01;;;;;;;;;;;;;;;26.77;100.00;99896.72;5028510;28;20385;-74
2023/08/15 08:16:27;;;;;;;;;;;;;;;26.82;100.00;99896.84;5030599;28;19964;-75
2023/08/15 08:18:52;;;;;;;;;;;;;;;26.87;100.00;99900.47;5030692;28;19921;-74
2023/08/15 08:21:17;;;;;;;;;;;;;;;26.92;100.00;99904.38;5031212;28;20027;-74
2023/08/15 08:23:43;;;;;;;;;;;;;;;26.99;100.00;99899.63;5031378;28;20063;-73
2023/08/15 08:26:08;;;;;;;;;;;;;;;27.03;100.00;99907.06;5030822;28;20309;-76
2023/08/15 08:28:34;;;;;;;;;;;;;;;27.10;100.00;99896.03;5031435;28;20321;-75
2023/08/15 08:30:59;;;;;;;;;;;;;;;27.16;100.00;99890.47;5031382;28;19928;-75
2023/08/15 08:33:25;;;;;;;;;;;;;;;27.23;100.00;99890.34;5031132;28;19967;-76
2023/08/15 08:35:50;;;;;;;;;;;;;;;27.29;100.00;99894.78;5031892;28;20260;-75
2023/08/15 08:38:16;;;;;;;;;;;;;;;27.34;100.00;99902.19;5030756;28;19925;-75
2023/08/15 08:40:42;;;;;;;;;;;;;;;27.37;100.00;99888.97;5030996;28;19929;-76
2023/08/15 08:43:09;;;;;;;;;;;;;;;27.46;100.00;99892.09;5031154;28;19943;-76
2023/08/15 08:45:39;;;;;;;;;;;;;;;27.52;100.00;99891.16;5029674;28;20012;-76
2023/08/15 08:48:05;;;;;;;;;;;;;;;27.56;100.00;99889.63;5030588;28;20020;-75
2023/08/15 08:50:31;;;;;;;;;;;;;;;27.62;100.00;99883.22;5030733;28;19974;-74
2023/08/15 08:52:56;;;;;;;;;;;;;;;27.69;100.00;99889.28;5030855;28;20300;-76
2023/08/15 08:55:23;;;;;;;;;;;;;;;27.75;100.00;99882.03;5030398;28;19925;-76
2023/08/15 08:57:50;;;;;;;;;;;;;;;27.77;100.00;99880.75;5030512;28;19921;-76
2023/08/15 09:00:17;;;;;;;;;;;;;;;27.78;100.00;99876.97;5030119;28;19921;-75
2023/08/15 09:02:43;;;;;;;;;;;;;;;27.82;100.00;99872.69;5031034;28;19928;-75
2023/08/15 09:05:09;;;;;;;;;;;;;;;27.87;100.00;99886.31;5030177;28;19928;-76
2023/08/15 09:07:35;;;;;;;;;;;;;;;27.91;100.00;99882.06;5030835;28;20293;-75
2023/08/15 09:10:01;;;;;;;;;;;;;;;27.95;100.00;99871.53;5029260;28;19921;-77
2023/08/15 09:12:36;;;;;;;;;;;;;;;27.92;100.00;99872.03;5030444;28;19931;-76
2023/08/15 09:15:04;;;;;;;;;;;;;;;27.96;100.00;99868.56;5028322;28;20000;-76
2023/08/15 09:17:30;;;;;;;;;;;;;;;27.99;100.00;99870.78;5030711;28;19921;-76
2023/08/15 09:19:55;;;;;;;;;;;;;;;28.01;100.00;99859.69;5030410;28;19944;-74
2023/08/15 09:22:24;;;;;;;;;;;;;;;28.06;100.00;99857.84;5030273;28;20389;-74
2023/08/15 09:24:50;;;;;;;;;;;;;;;28.13;100.00;99856.88;5026988;28;20250;-73
2023/08/15 09:27:16;;;;;;;;;;;;;;;28.12;100.00;99850.63;5033814;28;19952;-73
2023/08/15 09:29:42;;;;;;;;;;;;;;;28.18;100.00;99848.81;5034619;28;20340;-72
2023/08/15 09:32:08;;;;;;;;;;;;;;;28.23;100.00;99851.59;5033972;28;19980;-76
2023/08/15 09:34:33;;;;;;;;;;;;;;;28.26;100.00;99840.25;5033394;28;19960;-75
2023/08/15 09:36:58;;;;;;;;;;;;;;;28.29;100.00;99839.75;5034926;28;19921;-74
2023/08/15 09:39:25;;;;;;;;;;;;;;;28.32;100.00;99840.06;5034315;28;19925;-74
2023/08/15 09:41:52;;;;;;;;;;;;;;;28.36;100.00;99834.97;5034213;28;19928;-73
2023/08/15 09:44:28;;;;;;;;;;;;;;;28.42;100.00;99839.38;5030099;28;19925;-74
2023/08/15 09:46:53;;;;;;;;;;;;;;;28.46;100.00;99830.47;5029865;28;20395;-73
2023/08/15 09:49:20;;;;;;;;;;;;;;;28.61;100.00;99816.28;5034098;28;20011;-74
2023/08/15 09:51:46;;;;;;;;;;;;;;;28.71;100.00;99813.66;5034257;28;19925;-75
2023/08/15 09:54:11;;;;;;;;;;;;;;;28.78;100.00;99817.03;5034075;28;19928;-73
2023/08/15 09:56:37;;;;;;;;;;;;;;;28.83;100.00;99819.81;5033650;28;20399;-74
2023/08/15 09:59:03;;;;;;;;;;;;;;;28.87;100.00;99815.50;5033968;28;19921;-74
2023/08/15 10:01:29;;;;;;;;;;;;;;;28.93;100.00;99813.66;5033982;28;19928;-76
2023/08/15 10:03:57;;;;;;;;;;;;;;;28.98;100.00;99815.63;5034842;28;20327;-75
2023/08/15 10:06:23;;;;;;;;;;;;;;;29.05;100.00;99810.78;5033678;28;19929;-74
2023/08/15 10:08:48;;;;;;;;;;;;;;;29.12;100.00;99817.66;5034194;28;19927;-75
2023/08/15 10:11:15;;;;;;;;;;;;;;;29.13;100.00;99807.59;5033526;28;20012;-76
2023/08/15 10:13:41;;;;;;;;;;;;;;;29.16;100.00;99807.09;5033833;28;19928;-75
2023/08/15 10:16:08;;;;;;;;;;;;;;;29.20;100.00;99794.63;5033231;28;19921;-75
2023/08/15 10:18:34;;;;;;;;;;;;;;;29.24;100.00;99793.03;5033721;28;19928;-75
2023/08/15 10:21:00;;;;;;;;;;;;;;;29.28;100.00;99794.94;5033798;28;19921;-75
2023/08/15 10:23:29;;;;;;;;;;;;;;;29.32;100.00;99795.28;5033391;28;19921;-75
2023/08/15 10:25:55;;;;;;;;;;;;;;;29.36;100.00;99793.69;5033719;28;19921;-75
2023/08/15 10:28:20;;;;;;;;;;;;;;;29.35;100.00;99792.06;5031690;28;20020;-75
2023/08/15 10:30:47;;;;;;;;;;;;;;;29.36;100.00;99785.53;5032692;28;19932;-75
2023/08/15 10:33:12;;;;;;;;;;;;;;;29.37;100.00;99787.19;5033191;28;19929;-75
2023/08/15 10:35:41;;;;;;;;;;;;;;;29.41;99.91;99788.28;5033559;28;19929;-75
2023/08/15 10:38:12;;;;;;;;;;;;;;;29.47;99.12;99781.00;5032437;28;19921;-75
2023/08/15 10:40:39;;;;;;;;;;;;;;;29.51;98.18;99782.13;5033352;28;19925;-75
2023/08/15 10:43:05;;;;;;;;;;;;;;;29.59;97.26;99773.47;5032963;28;19975;-76
2023/08/15 10:45:52;;;;;;;;;;;;;;;29.61;97.28;99779.47;5032901;28;19965;-75
2023/08/15 10:48:37;;;;;;;;;;;;;;;29.63;96.81;99772.69;5027841;28;19975;-75
2023/08/15 10:51:02;;;;;;;;;;;;;;;29.63;96.86;99769.97;5031309;28;19921;-72
2023/08/15 10:53:27;;;;;;;;;;;;;;;29.65;96.33;99772.44;5032953;28;19927;-75
2023/08/15 10:55:54;;;;;;;;;;;;;;;29.70;98.71;99767.00;5033456;28;19975;-76
2023/08/15 10:58:20;;;;;;;;;;;;;;;29.75;98.27;99763.53;5032472;28;19924;-74
2023/08/15 11:00:46;;;;;;;;;;;;;;;29.83;95.56;99765.72;5032703;28;19979;-76
2023/08/15 11:03:11;;;;;;;;;;;;;;;29.87;94.98;99764.13;5031404;28;19929;-75
2023/08/15 11:05:36;;;;;;;;;;;;;;;29.91;93.98;99762.56;5033102;28;19932;-75
2023/08/15 11:08:09;;;;;;;;;;;;;;;29.95;94.43;99756.31;5032431;28;19928;-76
2023/08/15 11:10:34;;;;;;;;;;;;;;;29.98;94.44;99754.97;5032865;28;19975;-76
2023/08/15 11:12:59;;;;;;;;;;;;;;;30.04;92.43;99754.72;5032807;28;19925;-75
2023/08/15 11:15:25;;;;;;;;;;;;;;;30.09;91.29;99748.50;5032233;28;19921;-75
2023/08/15 11:17:53;;;;;;;;;;;;;;;30.14;89.79;99747.69;5032541;28;20003;-74
2023/08/15 11:20:20;;;;;;;;;;;;;;;30.17;89.81;99739.81;5028567;28;19947;-74
2023/08/15 11:22:54;;;;;;;;;;;;;;;30.20;89.33;99744.72;5032381;28;19928;-74
2023/08/15 11:25:19;;;;;;;;;;;;;;;30.23;88.45;99744.19;5028722;28;19928;-74
2023/08/15 11:27:45;;;;;;;;;;;;;;;30.24;88.91;99737.66;5032386;28;19921;-74
2023/08/15 11:30:10;;;;;;;;;;;;;;;30.30;89.20;99735.78;5031752;28;19997;-74
2023/08/15 11:32:38;;;;;;;;;;;;;;;30.34;88.55;99734.97;5032365;28;19921;-74
2023/08/15 11:35:04;;;;;;;;;;;;;;;30.39;88.95;99735.00;5032212;28;19921;-73
2023/08/15 11:37:30;;;;;;;;;;;;;;;30.49;87.51;99728.78;5032453;28;20310;-74
2023/08/15 11:39:55;;;;;;;;;;;;;;;30.60;87.88;99724.19;5032635;28;19921;-74
2023/08/15 11:42:21;;;;;;;;;;;;;;;30.65;88.32;99718.72;5032304;28;19924;-75
2023/08/15 11:44:47;;;;;;;;;;;;;;;30.74;87.27;99714.41;5031994;28;19991;-74
2023/08/15 11:47:18;;;;;;;;;;;;;;;30.81;87.56;99709.47;5031639;28;20396;-75
2023/08/15 11:49:45;;;;;;;;;;;;;;;30.90;87.02;99702.41;5031005;28;20336;-74
2023/08/15 11:52:10;;;;;;;;;;;;;;;31.00;86.67;99707.03;5031602;28;19965;-75
2023/08/15 11:54:36;;;;;;;;;;;;;;;31.13;85.86;99703.81;5032180;28;19964;-76
2023/08/15 11:57:01;;;;;;;;;;;;;;;31.26;84.22;99706.81;5032194;28;19928;-76
2023/08/15 11:59:26;;;;;;;;;;;;;;;31.37;83.62;99713.06;5032391;28;20335;-75
2023/08/15 12:01:52;;;;;;;;;;;;;;;31.49;83.00;99712.75;5033011;28;19925;-75
2023/08/15 12:04:17;;;;;;;;;;;;;;;31.57;81.10;99702.13;5027568;28;19932;-74
2023/08/15 12:06:43;;;;;;;;;;;;;;;31.65;80.54;99698.81;5031382;28;19929;-73
2023/08/15 12:09:08;;;;;;;;;;;;;;;31.79;80.92;99699.06;5031554;28;19975;-74
2023/08/15 12:11:34;;;;;;;;;;;;;;;32.00;79.48;99700.63;5031573;28;19940;-74
2023/08/15 12:14:00;;;;;;;;;;;;;;;32.21;77.02;99695.09;5031790;28;20293;-73
2023/08/15 12:16:25;;;;;;;;;;;;;;;32.36;75.79;99692.28;5030832;28;19994;-73
2023/08/15 12:18:50;;;;;;;;;;;;;;;32.55;76.05;99693.25;5031301;28;20254;-73
2023/08/15 12:21:16;;;;;;;;;;;;;;;32.75;73.92;99687.66;5031254;28;19921;-73
2023/08/15 12:23:41;;;;;;;;;;;;;;;32.86;72.62;99689.22;5031462;28;20655;-73
2023/08/15 12:26:07;;;;;;;;;;;;;;;33.01;72.60;99681.97;5031148;28;19925;-73
2023/08/15 12:28:32;;;;;;;;;;;;;;;33.18;71.74;99693.34;5031292;28;19921;-74
2023/08/15 12:30:57;;;;;;;;;;;;;;;33.32;70.62;99686.09;5031131;28;20373;-73
2023/08/15 12:33:23;;;;;;;;;;;;;;;33.46;68.22;99678.81;5030699;28;19921;-74